Time;durP1;ratioP1;P1;durP2;ratioP2;P2;SDS_P1;SDS_P2;PMS_P1;PMS_P2;Temp;Humidity;BMP_temperature;BMP_pressure;BME280_temperature;BME280_humidity;BME280_pressure;Samples;Min_cycle;Max_cycle;Signal;HPM_P1;HPM_P2
2021/10/04 00:00:26;;;;;;;13.57;10.70;;;359.20;2329.60;;;;;;5051008;28;20025;-73
2021/10/04 00:02:51;;;;;;;17.63;9.75;;;359.20;2329.60;;;;;;5051080;28;20071;-73
2021/10/04 00:05:17;;;;;;;19.83;10.73;;;359.20;2329.60;;;;;;5050870;28;20029;-73
2021/10/04 00:07:43;;;;;;;14.82;10.25;;;359.20;2329.60;;;;;;5050548;28;20025;-73
2021/10/04 00:10:12;;;;;;;14.43;11.07;;;359.20;2329.60;;;;;;5050341;28;20021;-73
2021/10/04 00:12:39;;;;;;;16.25;10.73;;;359.10;2329.60;;;;;;5051047;28;20040;-73
2021/10/04 00:15:08;;;;;;;16.92;11.40;;;359.10;2329.60;;;;;;5050995;28;20033;-73
2021/10/04 00:17:35;;;;;;;13.90;11.32;;;359.10;2329.60;;;;;;5051204;28;20048;-73
2021/10/04 00:20:01;;;;;;;14.05;10.15;;;359.10;2329.60;;;;;;5053479;28;20392;-73
2021/10/04 00:22:26;;;;;;;17.13;11.27;;;359.10;2329.60;;;;;;5054830;28;20025;-73
2021/10/04 00:24:52;;;;;;;14.93;11.32;;;359.10;2329.60;;;;;;5052668;28;20128;-73
2021/10/04 00:27:18;;;;;;;15.73;10.25;;;359.10;2329.60;;;;;;5054254;28;20510;-73
2021/10/04 00:29:43;;;;;;;16.13;10.55;;;359.10;2329.60;;;;;;5054869;28;20775;-73
2021/10/04 00:32:09;;;;;;;17.77;10.02;;;359.10;2329.60;;;;;;5052993;28;20479;-73
2021/10/04 00:34:35;;;;;;;26.10;11.20;;;359.10;2329.60;;;;;;5054800;28;20041;-73
2021/10/04 00:37:01;;;;;;;16.27;9.88;;;359.10;2329.60;;;;;;5054290;28;20029;-73
2021/10/04 00:39:27;;;;;;;17.50;10.27;;;359.20;2329.60;;;;;;5052018;28;20041;-72
2021/10/04 00:41:52;;;;;;;16.35;10.27;;;359.20;2329.60;;;;;;5053018;28;20036;-72
2021/10/04 00:44:19;;;;;;;15.60;10.10;;;359.20;2329.60;;;;;;5053547;28;20036;-72
2021/10/04 00:46:45;;;;;;;15.20;9.35;;;359.10;2329.60;;;;;;5052940;28;20517;-72
2021/10/04 00:49:10;;;;;;;14.93;9.68;;;359.10;2329.60;;;;;;5053318;28;20033;-72
2021/10/04 00:51:36;;;;;;;12.35;9.52;;;359.10;2329.60;;;;;;5053944;28;20468;-73
2021/10/04 00:54:03;;;;;;;16.60;9.98;;;359.10;2329.60;;;;;;5053579;28;20021;-73
2021/10/04 00:56:29;;;;;;;11.55;8.95;;;359.00;2329.60;;;;;;5054388;28;20025;-73
2021/10/04 00:58:55;;;;;;;14.82;10.00;;;359.00;2329.60;;;;;;5052489;28;20074;-73
2021/10/04 01:01:21;;;;;;;11.52;9.35;;;359.00;2329.60;;;;;;5053983;28;20051;-73
2021/10/04 01:03:47;;;;;;;15.48;10.02;;;359.00;2329.60;;;;;;5053618;28;20451;-73
2021/10/04 01:06:13;;;;;;;16.05;9.75;;;359.00;2329.60;;;;;;5054053;28;20559;-73
2021/10/04 01:08:39;;;;;;;17.48;10.38;;;359.00;2329.60;;;;;;5053720;28;20120;-74
2021/10/04 01:11:06;;;;;;;17.02;9.88;;;358.90;2329.60;;;;;;5053986;28;20104;-73
2021/10/04 01:13:32;;;;;;;14.98;9.23;;;359.00;2329.60;;;;;;5053842;28;20021;-73
2021/10/04 01:15:58;;;;;;;21.90;10.40;;;359.00;2329.60;;;;;;5053759;28;20506;-73
2021/10/04 01:18:24;;;;;;;13.57;10.10;;;358.90;2329.60;;;;;;5053842;28;20112;-73
2021/10/04 01:20:49;;;;;;;13.30;9.30;;;358.80;2329.60;;;;;;5053409;28;20029;-72
2021/10/04 01:23:15;;;;;;;13.82;8.88;;;358.80;2329.60;;;;;;5053357;28;20045;-73
2021/10/04 01:25:41;;;;;;;12.40;8.70;;;358.70;2329.60;;;;;;5053178;28;20041;-72
2021/10/04 01:28:08;;;;;;;16.05;9.23;;;358.80;2329.60;;;;;;5053560;28;20104;-72
2021/10/04 01:30:34;;;;;;;11.85;7.75;;;358.70;2329.60;;;;;;5053194;28;20021;-73
2021/10/04 01:33:00;;;;;;;12.30;7.85;;;358.70;2329.60;;;;;;5053426;28;20025;-73
2021/10/04 01:35:26;;;;;;;13.85;8.52;;;358.60;2329.60;;;;;;5053168;28;20105;-73
2021/10/04 01:37:52;;;;;;;12.35;8.80;;;358.70;2329.60;;;;;;5051834;28;20446;-73
2021/10/04 01:40:19;;;;;;;12.50;8.50;;;358.60;2329.60;;;;;;5052859;28;20071;-72
2021/10/04 01:42:46;;;;;;;11.85;7.75;;;358.60;2329.60;;;;;;5051486;28;20388;-72
2021/10/04 01:45:18;;;;;;;13.55;8.38;;;358.60;2329.60;;;;;;5053027;28;20033;-72
2021/10/04 01:47:45;;;;;;;12.70;7.75;;;358.60;2329.60;;;;;;5052828;28;20060;-73
2021/10/04 01:50:12;;;;;;;10.20;8.07;;;358.70;2329.60;;;;;;5052733;28;20029;-72
2021/10/04 01:52:39;;;;;;;12.73;7.60;;;358.60;2329.60;;;;;;5052659;28;20040;-72
2021/10/04 01:55:05;;;;;;;11.13;7.82;;;358.60;2329.60;;;;;;5047362;28;20063;-73
2021/10/04 01:57:31;;;;;;;12.63;7.57;;;358.60;2329.60;;;;;;5049611;28;20571;-72
2021/10/04 02:00:01;;;;;;;15.82;8.63;;;358.60;2329.60;;;;;;5037755;28;20117;-73
2021/10/04 02:02:28;;;;;;;15.50;8.27;;;358.60;2329.60;;;;;;5052196;28;20099;-72
2021/10/04 02:04:54;;;;;;;10.45;7.05;;;358.60;2329.60;;;;;;5052284;28;20025;-73
2021/10/04 02:07:20;;;;;;;10.00;7.72;;;358.60;2329.60;;;;;;5052805;28;20074;-73
2021/10/04 02:09:47;;;;;;;11.02;7.43;;;358.50;2329.60;;;;;;5054481;28;20033;-73
2021/10/04 02:12:17;;;;;;;12.98;7.15;;;358.50;2329.60;;;;;;5052561;28;20108;-73
2021/10/04 02:14:42;;;;;;;18.23;8.35;;;358.50;2329.60;;;;;;5052264;28;20017;-73
2021/10/04 02:17:08;;;;;;;11.32;7.72;;;358.50;2329.60;;;;;;5050579;28;20082;-73
2021/10/04 02:19:34;;;;;;;11.60;6.75;;;358.50;2329.60;;;;;;5052226;28;20017;-73
2021/10/04 02:22:00;;;;;;;13.40;7.03;;;358.50;2329.60;;;;;;5052127;28;20024;-73
2021/10/04 02:24:29;;;;;;;15.23;7.38;;;358.50;2329.60;;;;;;5051581;28;20511;-73
2021/10/04 02:26:55;;;;;;;10.80;6.85;;;358.40;2329.60;;;;;;5050784;28;20048;-73
2021/10/04 02:29:21;;;;;;;12.35;8.13;;;358.40;2329.60;;;;;;5049853;28;20029;-73
2021/10/04 02:31:48;;;;;;;12.93;7.55;;;358.50;2329.60;;;;;;5056047;28;20017;-73
2021/10/04 02:34:14;;;;;;;10.75;5.93;;;358.40;2329.60;;;;;;5052605;28;20044;-73
2021/10/04 02:36:40;;;;;;;11.32;7.05;;;358.40;2329.60;;;;;;5052290;28;20456;-73
2021/10/04 02:39:06;;;;;;;10.77;6.82;;;358.40;2329.60;;;;;;5056937;28;20480;-73
2021/10/04 02:41:32;;;;;;;9.75;6.75;;;358.40;2329.60;;;;;;5050312;28;20066;-73
2021/10/04 02:43:57;;;;;;;13.18;6.88;;;358.40;2329.60;;;;;;5041502;28;20072;-73
2021/10/04 02:46:23;;;;;;;10.77;6.82;;;358.40;2329.60;;;;;;5051544;28;21715;-73
2021/10/04 02:48:49;;;;;;;9.90;6.30;;;358.40;2329.60;;;;;;5052118;28;20024;-73
2021/10/04 02:51:15;;;;;;;11.77;6.80;;;358.40;2329.60;;;;;;5067347;28;20179;-73
2021/10/04 02:53:41;;;;;;;12.25;7.53;;;333.70;2329.60;;;;;;5051764;28;20056;-72
2021/10/04 02:56:07;;;;;;;9.38;6.75;;;333.70;2329.60;;;;;;5051674;28;20051;-72
2021/10/04 02:58:33;;;;;;;8.88;5.90;;;358.40;2329.60;;;;;;5050996;28;20017;-72
2021/10/04 03:00:59;;;;;;;9.90;6.32;;;358.40;2329.60;;;;;;5051594;28;20049;-72
2021/10/04 03:03:25;;;;;;;8.65;6.10;;;358.40;2329.60;;;;;;5058641;28;20021;-73
2021/10/04 03:05:51;;;;;;;10.70;6.82;;;358.40;2329.60;;;;;;5051501;28;20533;-73
2021/10/04 03:08:17;;;;;;;9.48;5.68;;;358.40;2329.60;;;;;;5050908;28;20490;-72
2021/10/04 03:10:43;;;;;;;9.98;6.13;;;358.40;2329.60;;;;;;5050857;28;20105;-72
2021/10/04 03:13:09;;;;;;;13.82;7.28;;;358.40;2329.60;;;;;;5051003;28;20074;-73
2021/10/04 03:15:35;;;;;;;14.55;7.25;;;358.40;2329.60;;;;;;5050717;28;20040;-72
2021/10/04 03:18:01;;;;;;;9.70;6.78;;;358.40;2329.60;;;;;;5051167;28;20028;-72
2021/10/04 03:20:27;;;;;;;7.28;5.60;;;358.40;2329.60;;;;;;5050945;28;20395;-72
2021/10/04 03:22:54;;;;;;;8.00;6.93;;;358.40;2329.60;;;;;;5051207;28;20028;-72
2021/10/04 03:25:21;;;;;;;13.15;6.45;;;358.40;2329.60;;;;;;5051210;28;20142;-73
2021/10/04 03:27:47;;;;;;;9.30;5.97;;;358.40;2329.60;;;;;;5038530;28;20024;-72
2021/10/04 03:30:13;;;;;;;8.10;5.80;;;358.40;2329.60;;;;;;5058916;28;20033;-73
2021/10/04 03:32:39;;;;;;;12.77;6.43;;;358.40;2329.60;;;;;;5049272;28;20025;-72
2021/10/04 03:35:07;;;;;;;9.30;6.47;;;358.40;2329.60;;;;;;5039066;28;20028;-73
2021/10/04 03:37:33;;;;;;;9.48;5.55;;;358.40;2329.60;;;;;;5045123;28;20075;-73
2021/10/04 03:39:58;;;;;;;10.80;7.43;;;358.40;2329.60;;;;;;5049312;28;20040;-73
2021/10/04 03:42:24;;;;;;;7.30;5.43;;;358.40;2329.60;;;;;;5050860;28;20029;-73
2021/10/04 03:44:50;;;;;;;9.13;6.13;;;358.40;2329.60;;;;;;5051140;28;20083;-73
2021/10/04 03:47:16;;;;;;;9.30;5.53;;;358.40;2329.60;;;;;;5051071;28;20578;-72
2021/10/04 03:49:42;;;;;;;8.35;6.05;;;358.40;2329.60;;;;;;5066567;28;20033;-73
2021/10/04 03:52:07;;;;;;;13.10;5.90;;;358.40;2329.60;;;;;;5051740;28;20025;-73
2021/10/04 03:54:33;;;;;;;12.10;6.38;;;358.40;2329.60;;;;;;5055370;28;20017;-73
2021/10/04 03:57:02;;;;;;;8.50;5.35;;;358.40;2329.60;;;;;;5055072;28;20037;-72
2021/10/04 03:59:27;;;;;;;9.20;5.45;;;358.40;2329.60;;;;;;5046109;28;20033;-73
2021/10/04 04:01:53;;;;;;;11.15;6.75;;;358.40;2329.60;;;;;;5068997;28;20112;-73
2021/10/04 04:04:19;;;;;;;11.88;6.57;;;358.40;2329.60;;;;;;5055491;28;20021;-73
2021/10/04 04:06:45;;;;;;;10.98;6.32;;;358.40;2329.60;;;;;;5055078;28;20040;-73
2021/10/04 04:09:10;;;;;;;10.10;6.30;;;358.40;2329.60;;;;;;5054848;28;20029;-73
2021/10/04 04:11:36;;;;;;;9.60;6.07;;;358.40;2329.60;;;;;;5062673;28;20021;-74
2021/10/04 04:14:03;;;;;;;7.05;5.22;;;358.40;2329.60;;;;;;5054792;28;20025;-73
2021/10/04 04:16:29;;;;;;;10.68;6.47;;;358.40;2329.60;;;;;;5055133;28;20021;-73
2021/10/04 04:18:55;;;;;;;10.98;5.68;;;358.40;2329.60;;;;;;5053854;28;20048;-74
2021/10/04 04:21:21;;;;;;;9.50;5.78;;;358.40;2329.60;;;;;;5055585;28;20411;-74
2021/10/04 04:23:47;;;;;;;14.07;6.07;;;358.40;2329.60;;;;;;5056603;28;20060;-75
2021/10/04 04:26:12;;;;;;;12.02;6.72;;;358.40;2329.60;;;;;;5061394;28;20040;-75
2021/10/04 04:28:38;;;;;;;9.23;5.95;;;358.40;2329.60;;;;;;5062412;28;20468;-75
2021/10/04 04:31:04;;;;;;;10.30;6.30;;;358.40;2329.60;;;;;;5056565;28;20032;-75
2021/10/04 04:33:30;;;;;;;10.48;6.35;;;358.40;2329.60;;;;;;5060751;28;20049;-74
2021/10/04 04:35:56;;;;;;;7.35;5.30;;;358.40;2329.60;;;;;;5070825;28;20488;-75
2021/10/04 04:38:22;;;;;;;10.05;5.55;;;333.70;2329.60;;;;;;5069473;28;20024;-74
2021/10/04 04:40:47;;;;;;;9.93;6.20;;;358.40;2329.60;;;;;;5056078;28;20029;-75
2021/10/04 04:43:13;;;;;;;11.82;6.22;;;358.40;2329.60;;;;;;5064867;28;20446;-75
2021/10/04 04:45:39;;;;;;;11.63;6.53;;;358.40;2329.60;;;;;;5062208;28;20365;-74
2021/10/04 04:48:05;;;;;;;9.95;5.57;;;358.40;2329.60;;;;;;5049115;28;20430;-74
2021/10/04 04:50:31;;;;;;;8.75;6.30;;;358.40;2329.60;;;;;;5057919;28;20049;-75
2021/10/04 04:52:57;;;;;;;10.98;5.82;;;358.50;2329.60;;;;;;5076609;28;20112;-74
2021/10/04 04:55:23;;;;;;;13.23;5.93;;;358.50;2329.60;;;;;;5057697;28;20888;-74
2021/10/04 04:57:48;;;;;;;8.93;6.18;;;358.50;2329.60;;;;;;5062819;28;20029;-74
2021/10/04 05:00:18;;;;;;;6.97;6.13;;;358.60;2329.60;;;;;;5066095;28;20031;-74
2021/10/04 05:02:45;;;;;;;9.88;6.55;;;358.60;2329.60;;;;;;5054196;28;20028;-74
2021/10/04 05:05:14;;;;;;;12.13;5.93;;;358.60;2329.60;;;;;;5053550;28;20021;-74
2021/10/04 05:07:40;;;;;;;10.80;6.28;;;358.70;2329.60;;;;;;5056447;28;20021;-74
2021/10/04 05:10:07;;;;;;;9.60;6.70;;;358.70;2329.60;;;;;;5053539;28;20084;-75
2021/10/04 05:12:33;;;;;;;10.65;5.68;;;358.70;2329.60;;;;;;5052667;28;20025;-74
2021/10/04 05:14:59;;;;;;;8.98;6.82;;;358.80;2329.60;;;;;;5052491;28;20095;-75
2021/10/04 05:17:25;;;;;;;12.55;6.15;;;358.80;2329.60;;;;;;5053571;28;20027;-75
2021/10/04 05:19:51;;;;;;;8.60;5.93;;;358.90;2329.60;;;;;;5052352;28;20025;-73
2021/10/04 05:22:17;;;;;;;8.25;5.40;;;358.90;2329.60;;;;;;5052200;28;20032;-73
2021/10/04 05:24:43;;;;;;;8.32;5.93;;;358.90;2329.60;;;;;;5054675;28;20049;-73
2021/10/04 05:27:09;;;;;;;9.02;5.47;;;359.00;2329.60;;;;;;5053499;28;20037;-74
2021/10/04 05:29:35;;;;;;;9.25;5.53;;;359.10;2329.60;;;;;;5053193;28;20032;-74
2021/10/04 05:32:00;;;;;;;11.10;6.15;;;359.20;2329.60;;;;;;5053175;28;20021;-74
2021/10/04 05:34:26;;;;;;;8.85;5.88;;;359.20;2329.60;;;;;;5053156;28;20426;-74
2021/10/04 05:36:52;;;;;;;10.55;6.20;;;359.30;2329.60;;;;;;5053265;28;20474;-74
2021/10/04 05:39:18;;;;;;;7.93;5.18;;;384.00;2329.60;;;;;;5052701;28;20029;-73
2021/10/04 05:41:44;;;;;;;9.73;5.60;;;384.10;2329.60;;;;;;5053960;28;20033;-73
2021/10/04 05:44:10;;;;;;;12.90;6.35;;;384.10;2329.60;;;;;;5051483;28;20032;-73
2021/10/04 05:46:36;;;;;;;6.78;4.97;;;384.20;2329.60;;;;;;5052019;28;20104;-72
2021/10/04 05:49:02;;;;;;;7.82;5.60;;;384.30;2329.60;;;;;;5051774;28;20032;-73
2021/10/04 05:51:28;;;;;;;9.05;6.10;;;384.30;2329.60;;;;;;5052255;28;20020;-73
2021/10/04 05:53:54;;;;;;;11.90;5.47;;;384.40;2329.60;;;;;;5050638;28;20406;-73
2021/10/04 05:56:20;;;;;;;11.68;6.10;;;384.50;2329.60;;;;;;5050367;28;20040;-73
2021/10/04 05:58:45;;;;;;;10.05;5.55;;;384.60;2329.60;;;;;;5050495;28;20090;-73
2021/10/04 06:01:11;;;;;;;10.68;7.18;;;384.70;2329.60;;;;;;5050543;28;20068;-73
2021/10/04 06:03:37;;;;;;;12.20;6.07;;;384.70;2329.60;;;;;;5050371;28;20028;-73
2021/10/04 06:06:02;;;;;;;12.07;5.57;;;384.80;2329.60;;;;;;5051405;28;20419;-73
2021/10/04 06:08:28;;;;;;;9.02;5.82;;;384.90;2329.60;;;;;;5052312;28;20024;-73
2021/10/04 06:10:54;;;;;;;12.75;4.88;;;409.60;2355.20;;;;;;5052114;28;20017;-73
2021/10/04 06:13:20;;;;;;;13.13;6.03;;;409.70;2355.20;;;;;;5052551;28;20033;-73
2021/10/04 06:15:46;;;;;;;9.52;5.38;;;409.80;2355.20;;;;;;5051419;28;20061;-73
2021/10/04 06:18:12;;;;;;;9.65;4.93;;;409.90;2355.20;;;;;;5052616;28;20053;-73
2021/10/04 06:20:45;;;;;;;10.65;5.45;;;410.00;2355.20;;;;;;5051659;28;20111;-74
2021/10/04 06:23:11;;;;;;;11.93;5.78;;;410.10;2355.20;;;;;;5047635;28;20074;-73
2021/10/04 06:25:38;;;;;;;10.35;5.22;;;410.10;2355.20;;;;;;5050895;28;20056;-74
2021/10/04 06:28:04;;;;;;;10.73;6.57;;;410.30;2355.20;;;;;;5052053;28;20384;-73
2021/10/04 06:30:30;;;;;;;12.80;5.75;;;410.40;2355.20;;;;;;5051213;28;20033;-73
2021/10/04 06:32:55;;;;;;;13.52;6.20;;;410.50;2355.20;;;;;;5052112;28;20040;-73
2021/10/04 06:35:21;;;;;;;8.60;4.78;;;435.20;2355.20;;;;;;5050367;28;20025;-72
2021/10/04 06:37:47;;;;;;;7.50;5.05;;;435.30;2355.20;;;;;;5054270;28;20029;-72
2021/10/04 06:40:14;;;;;;;12.95;5.50;;;435.40;2355.20;;;;;;5050585;28;20079;-72
2021/10/04 06:42:40;;;;;;;11.30;4.97;;;435.50;2355.20;;;;;;5051839;28;20056;-72
2021/10/04 06:45:07;;;;;;;7.82;5.40;;;435.70;2355.20;;;;;;5045573;28;20048;-72
2021/10/04 06:47:33;;;;;;;9.07;5.93;;;435.80;2355.20;;;;;;5044247;28;20487;-72
2021/10/04 06:49:59;;;;;;;12.05;4.88;;;435.90;2355.20;;;;;;5051361;28;20164;-72
2021/10/04 06:52:25;;;;;;;12.00;5.75;;;436.00;2355.20;;;;;;5050452;28;20543;-72
2021/10/04 06:54:51;;;;;;;11.13;4.88;;;460.80;2380.80;;;;;;5050580;28;20076;-73
2021/10/04 06:57:16;;;;;;;12.43;5.47;;;460.90;2380.80;;;;;;5048014;28;20099;-72
2021/10/04 06:59:42;;;;;;;9.13;5.22;;;461.10;2380.80;;;;;;5046027;28;20017;-72
2021/10/04 07:02:08;;;;;;;11.18;5.22;;;461.30;2380.80;;;;;;5050980;28;20186;-72
2021/10/04 07:04:34;;;;;;;12.75;5.97;;;461.40;2380.80;;;;;;5050712;28;20029;-72
2021/10/04 07:06:59;;;;;;;9.57;5.68;;;461.60;2355.20;;;;;;5049346;28;20024;-72
2021/10/04 07:09:25;;;;;;;9.75;5.55;;;486.40;2355.20;;;;;;5050289;28;20430;-73
2021/10/04 07:11:51;;;;;;;14.35;6.90;;;486.50;2304.00;;;;;;5048474;28;20574;-72
2021/10/04 07:14:17;;;;;;;9.63;5.68;;;486.60;2304.00;;;;;;5050888;28;20388;-73
2021/10/04 07:16:43;;;;;;;14.05;6.03;;;486.90;2278.40;;;;;;5050682;28;20014;-73
2021/10/04 07:19:09;;;;;;;12.75;6.10;;;487.00;2252.80;;;;;;5050600;28;20028;-73
2021/10/04 07:21:34;;;;;;;12.80;6.25;;;487.10;2227.20;;;;;;5039408;28;20034;-73
2021/10/04 07:24:00;;;;;;;21.52;6.55;;;487.20;2201.60;;;;;;5051210;28;20098;-73
2021/10/04 07:26:27;;;;;;;12.25;6.22;;;487.30;2176.00;;;;;;5057630;28;20040;-73
2021/10/04 07:28:53;;;;;;;11.77;5.40;;;512.00;2176.00;;;;;;5049988;28;20384;-73
2021/10/04 07:31:19;;;;;;;11.95;5.50;;;512.20;2150.40;;;;;;5050461;28;20028;-73
2021/10/04 07:33:45;;;;;;;14.93;5.40;;;512.40;2150.40;;;;;;5048713;28;20021;-74
2021/10/04 07:36:11;;;;;;;8.27;5.13;;;512.60;2099.20;;;;;;5046984;28;20033;-73
2021/10/04 07:38:38;;;;;;;9.00;5.25;;;512.70;2099.20;;;;;;5048579;28;20059;-73
2021/10/04 07:41:06;;;;;;;12.70;5.82;;;512.90;2073.60;;;;;;5049017;28;20075;-73
2021/10/04 07:43:33;;;;;;;9.40;5.28;;;537.60;2073.60;;;;;;5049109;28;20086;-74
2021/10/04 07:45:59;;;;;;;9.80;5.25;;;537.60;2048.00;;;;;;5049267;28;20027;-74
2021/10/04 07:48:25;;;;;;;11.65;6.13;;;537.80;2048.00;;;;;;5046531;28;20025;-73
2021/10/04 07:50:51;;;;;;;15.70;6.38;;;538.10;2022.40;;;;;;5048149;28;20473;-73
2021/10/04 07:53:17;;;;;;;12.48;6.75;;;538.40;1996.80;;;;;;5048230;28;20025;-73
2021/10/04 07:55:43;;;;;;;14.13;5.63;;;563.30;2022.40;;;;;;5048991;28;20109;-73
2021/10/04 07:58:11;;;;;;;9.40;5.07;;;563.50;1971.20;;;;;;5048288;28;20029;-74
2021/10/04 08:00:36;;;;;;;13.85;6.82;;;563.50;1945.60;;;;;;5048452;28;20506;-74
2021/10/04 08:03:03;;;;;;;9.57;5.85;;;563.70;1945.60;;;;;;5046896;28;20041;-73
2021/10/04 08:05:29;;;;;;;9.35;5.43;;;563.80;1920.00;;;;;;5048223;28;20382;-73
2021/10/04 08:07:55;;;;;;;14.23;6.60;;;563.90;1894.40;;;;;;5047957;28;20104;-72
2021/10/04 08:10:21;;;;;;;10.93;5.32;;;563.90;1894.40;;;;;;5050796;28;20471;-71
2021/10/04 08:12:47;;;;;;;6.03;5.40;;;588.80;1868.80;;;;;;5051441;28;20052;-72
2021/10/04 08:15:13;;;;;;;10.55;5.40;;;589.10;1868.80;;;;;;5048369;28;20025;-71
2021/10/04 08:17:39;;;;;;;12.45;6.15;;;589.10;1843.20;;;;;;5049719;28;20024;-72
2021/10/04 08:20:08;;;;;;;15.02;6.03;;;589.30;1817.60;;;;;;5049528;28;20483;-73
2021/10/04 08:22:35;;;;;;;12.50;5.90;;;589.70;1792.00;;;;;;5050620;28;20032;-73
2021/10/04 08:25:02;;;;;;;9.57;5.32;;;614.50;1766.40;;;;;;5046679;28;20049;-73
2021/10/04 08:27:28;;;;;;;9.52;5.32;;;614.70;1740.80;;;;;;5040500;28;20033;-73
2021/10/04 08:29:54;;;;;;;10.52;6.68;;;614.70;1740.80;;;;;;5050995;28;20071;-73
2021/10/04 08:32:19;;;;;;;13.63;5.40;;;615.00;1715.20;;;;;;5050113;28;20017;-73
2021/10/04 08:34:45;;;;;;;9.20;4.80;;;615.00;1715.20;;;;;;5048878;28;20161;-73
2021/10/04 08:37:11;;;;;;;9.85;5.57;;;615.20;1689.60;;;;;;5050084;28;20052;-73
2021/10/04 08:39:37;;;;;;;9.32;5.93;;;615.20;1664.00;;;;;;5051430;28;20025;-73
2021/10/04 08:42:03;;;;;;;12.05;5.13;;;640.00;1638.40;;;;;;5047778;28;20488;-72
2021/10/04 08:44:29;;;;;;;11.48;5.78;;;640.20;1638.40;;;;;;5053285;28;20024;-73
2021/10/04 08:46:55;;;;;;;12.38;6.00;;;640.40;1612.80;;;;;;5053332;28;20036;-73
2021/10/04 08:49:21;;;;;;;12.27;6.25;;;640.70;1612.80;;;;;;5053547;28;20029;-73
2021/10/04 08:51:49;;;;;;;11.15;5.97;;;665.60;1612.80;;;;;;5053481;28;20036;-73
2021/10/04 08:54:21;;;;;;;13.13;5.68;;;665.60;1587.20;;;;;;5052025;28;20483;-73
2021/10/04 08:56:47;;;;;;;11.30;5.88;;;665.70;1587.20;;;;;;5052390;28;20040;-73
2021/10/04 08:59:14;;;;;;;10.27;5.45;;;666.00;1561.60;;;;;;5053310;28;20380;-73
2021/10/04 09:01:39;;;;;;;14.45;6.25;;;666.10;1561.60;;;;;;5051515;28;20353;-73
2021/10/04 09:04:05;;;;;;;11.52;6.40;;;691.20;1536.00;;;;;;5053038;28;20063;-73
2021/10/04 09:06:40;;;;;;;11.65;6.35;;;666.50;1536.00;;;;;;5051396;28;20372;-73
2021/10/04 09:09:17;;;;;;;21.73;12.13;;;666.50;1510.40;;;;;;5044528;28;20021;-73
2021/10/04 09:11:49;;;;;;;23.25;9.30;;;691.40;1484.80;;;;;;5046401;28;20025;-73
2021/10/04 09:14:28;;;;;;;27.42;15.35;;;691.50;1484.80;;;;;;5051320;28;20086;-73
2021/10/04 09:17:02;;;;;;;21.70;12.90;;;691.50;1484.80;;;;;;5050960;28;20479;-73
2021/10/04 09:19:36;;;;;;;17.55;12.52;;;691.80;1459.20;;;;;;5050575;28;20028;-73
2021/10/04 09:22:08;;;;;;;18.13;9.10;;;692.00;1433.60;;;;;;5050701;28;20029;-73
2021/10/04 09:24:39;;;;;;;13.40;9.90;;;691.90;1433.60;;;;;;5063726;28;20115;-73
2021/10/04 09:27:23;;;;;;;15.40;8.50;;;716.90;1459.20;;;;;;5050993;28;20048;-73
2021/10/04 09:29:49;;;;;;;15.63;7.45;;;716.90;1433.60;;;;;;5050867;28;20029;-73
2021/10/04 09:32:22;;;;;;;15.95;8.20;;;717.10;1433.60;;;;;;5050834;28;20475;-73
2021/10/04 09:34:48;;;;;;;12.07;5.93;;;717.30;1408.00;;;;;;5050915;28;20369;-73
2021/10/04 09:37:25;;;;;;;11.68;7.15;;;717.30;1408.00;;;;;;5049110;28;20040;-73
2021/10/04 09:39:51;;;;;;;14.73;6.78;;;717.30;1408.00;;;;;;5049395;28;20494;-73
2021/10/04 09:42:18;;;;;;;10.27;7.00;;;717.70;1408.00;;;;;;5050591;28;20032;-74
2021/10/04 09:44:54;;;;;;;17.23;7.38;;;742.40;1408.00;;;;;;5049461;28;20045;-73
2021/10/04 09:47:29;;;;;;;7.10;5.22;;;742.40;1408.00;;;;;;5050724;28;20060;-73
2021/10/04 09:50:12;;;;;;;8.93;6.95;;;742.60;1408.00;;;;;;5049954;28;20013;-73
2021/10/04 09:53:02;;;;;;;11.45;6.25;;;742.70;1408.00;;;;;;5050927;28;20021;-73
2021/10/04 09:55:36;;;;;;;14.35;6.07;;;742.70;1382.40;;;;;;4985459;28;20101;-74
2021/10/04 09:58:16;;;;;;;14.75;6.15;;;743.10;1382.40;;;;;;4988740;28;20041;-73
2021/10/04 10:00:59;;;;;;;8.32;5.75;;;743.20;1382.40;;;;;;4988848;28;20038;-73
2021/10/04 10:03:37;;;;;;;10.52;6.13;;;768.00;1356.80;;;;;;4985671;28;20026;-73
2021/10/04 10:06:03;;;;;;;12.23;5.82;;;768.20;1356.80;;;;;;4988827;28;20062;-73
2021/10/04 10:08:29;;;;;;;13.60;5.70;;;743.30;1382.40;;;;;;4988457;28;20058;-73
2021/10/04 10:10:58;;;;;;;13.90;6.40;;;768.40;1331.20;;;;;;4988194;28;20049;-73
2021/10/04 10:13:26;;;;;;;10.43;5.97;;;768.70;1331.20;;;;;;4988529;28;20038;-73
2021/10/04 10:16:16;;;;;;;8.60;5.70;;;793.70;1331.20;;;;;;4989827;28;20037;-74
2021/10/04 10:19:07;;;;;;;14.18;6.60;;;793.80;1331.20;;;;;;4986494;28;20466;-74
2021/10/04 10:21:34;;;;;;;9.93;6.28;;;794.40;1280.00;;;;;;4983794;28;20049;-73
2021/10/04 10:24:00;;;;;;;9.75;6.22;;;794.30;1280.00;;;;;;4989455;28;20521;-73
2021/10/04 10:26:47;;;;;;;15.23;7.22;;;794.40;1280.00;;;;;;4967989;28;20093;-74
2021/10/04 10:29:13;;;;;;;10.75;7.50;;;819.20;1280.00;;;;;;4985923;28;20027;-73
2021/10/04 10:31:48;;;;;;;11.45;8.13;;;794.50;1280.00;;;;;;5000302;28;20041;-73
2021/10/04 10:34:32;;;;;;;13.13;9.60;;;819.40;1254.40;;;;;;5051672;28;20532;-73
2021/10/04 10:37:00;;;;;;;23.58;12.32;;;819.40;1254.40;;;;;;5050218;28;20265;-73
2021/10/04 10:39:35;;;;;;;10.05;5.25;;;819.20;1254.40;;;;;;5051381;28;20021;-73
2021/10/04 10:42:20;;;;;;;8.35;5.45;;;819.20;1254.40;;;;;;5050752;28;20017;-73
2021/10/04 10:45:03;;;;;;;13.82;7.18;;;819.60;1228.80;;;;;;5047824;28;20437;-74
2021/10/04 10:47:39;;;;;;;15.07;9.88;;;819.90;1228.80;;;;;;5044044;28;20021;-74
2021/10/04 10:50:24;;;;;;;17.27;8.63;;;845.00;1228.80;;;;;;5050402;28;20444;-74
2021/10/04 10:52:55;;;;;;;11.15;5.82;;;845.10;1203.20;;;;;;5049312;28;20026;-74
2021/10/04 10:55:21;;;;;;;8.95;5.88;;;845.20;1228.80;;;;;;5049424;28;20024;-74
2021/10/04 10:57:56;;;;;;;11.00;6.05;;;845.70;1203.20;;;;;;5050325;28;20025;-74
2021/10/04 11:00:34;;;;;;;10.93;6.35;;;870.40;1177.60;;;;;;5048383;28;20037;-73
2021/10/04 11:03:16;;;;;;;8.95;5.85;;;870.80;1177.60;;;;;;5049880;28;20071;-73
2021/10/04 11:05:42;;;;;;;12.15;5.97;;;871.10;1152.00;;;;;;5048056;28;20029;-74
2021/10/04 11:08:18;;;;;;;9.45;6.45;;;870.80;1152.00;;;;;;5049565;28;20033;-73
2021/10/04 11:10:51;;;;;;;11.32;6.13;;;870.40;1177.60;;;;;;5058268;28;20029;-74
2021/10/04 11:13:31;;;;;;;11.82;6.10;;;870.40;1152.00;;;;;;5047209;28;20020;-74
2021/10/04 11:16:10;;;;;;;13.18;6.35;;;870.90;1126.40;;;;;;5044795;28;20065;-74
2021/10/04 11:18:45;;;;;;;6.82;5.32;;;871.20;1126.40;;;;;;5050011;28;20017;-74
2021/10/04 11:21:12;;;;;;;;;;;896.00;1126.40;;;;;;5050723;28;20894;-74
2021/10/04 11:23:51;;;;;;;9.02;5.28;;;896.20;1100.80;;;;;;5049927;28;19970;-74
2021/10/04 11:26:19;;;;;;;9.25;6.28;;;896.30;1100.80;;;;;;5050555;28;20040;-74
2021/10/04 11:28:48;;;;;;;20.80;11.40;;;896.10;1100.80;;;;;;5050078;28;20049;-74
2021/10/04 11:31:25;;;;;;;35.33;19.25;;;896.50;1100.80;;;;;;5050010;28;20044;-74
2021/10/04 11:34:04;;;;;;;16.42;7.57;;;896.50;1100.80;;;;;;5047929;28;20021;-74
2021/10/04 11:36:31;;;;;;;14.73;7.78;;;896.30;1100.80;;;;;;5049909;28;20021;-74
2021/10/04 11:39:22;;;;;;;12.98;7.22;;;896.30;1100.80;;;;;;5050107;28;20025;-74
2021/10/04 11:41:49;;;;;;;19.80;11.18;;;896.20;1100.80;;;;;;5038776;28;20105;-74
2021/10/04 11:44:21;;;;;;;15.93;7.72;;;896.50;1075.20;;;;;;5049241;28;20040;-74
2021/10/04 11:46:56;;;;;;;8.18;5.80;;;896.50;1075.20;;;;;;5047262;28;20013;-74
2021/10/04 11:49:23;;;;;;;;;;;896.50;1075.20;;;;;;5047323;28;20039;-74
2021/10/04 11:51:53;;;;;;;13.30;7.65;;;896.50;1075.20;;;;;;5049225;28;19939;-74
2021/10/04 11:54:33;;;;;;;11.70;5.95;;;896.50;1075.20;;;;;;5048764;28;20025;-74
2021/10/04 11:56:59;;;;;;;10.68;6.47;;;896.80;1075.20;;;;;;5049641;28;20706;-74
2021/10/04 11:59:25;;;;;;;9.07;6.05;;;896.50;1075.20;;;;;;5047427;28;20017;-75
2021/10/04 12:01:52;;;;;;;9.68;6.47;;;896.70;1075.20;;;;;;5045089;28;20104;-73
2021/10/04 12:04:21;;;;;;;10.95;7.50;;;896.90;1049.60;;;;;;5048383;28;20360;-72
2021/10/04 12:06:47;;;;;;;10.23;6.50;;;896.90;1049.60;;;;;;5049284;28;20472;-72
2021/10/04 12:09:21;;;;;;;11.65;7.80;;;921.60;1075.20;;;;;;5049491;28;20025;-72
2021/10/04 12:11:54;;;;;;;15.13;6.78;;;922.10;1075.20;;;;;;5054265;28;20021;-72
2021/10/04 12:14:22;;;;;;;18.02;9.98;;;922.10;1075.20;;;;;;5048779;28;20052;-72